sensor_id;sensor_type;location;lat;lon;timestamp;P1;durP1;ratioP1;P2;durP2;ratioP2
7359;SDS011;3720;48.274;7.796;2023-09-18T00:01:57;7.43;;;2.45;;
7359;SDS011;3720;48.274;7.796;2023-09-18T00:04:28;4.45;;;2.30;;
7359;SDS011;3720;48.274;7.796;2023-09-18T00:07:02;7.78;;;2.33;;
7359;SDS011;3720;48.274;7.796;2023-09-18T00:09:34;4.72;;;2.35;;
7359;SDS011;3720;48.274;7.796;2023-09-18T00:12:06;4.22;;;2.30;;
7359;SDS011;3720;48.274;7.796;2023-09-18T00:14:39;5.35;;;2.17;;
7359;SDS011;3720;48.274;7.796;2023-09-18T00:17:11;4.20;;;2.10;;
7359;SDS011;3720;48.274;7.796;2023-09-18T00:19:43;6.95;;;2.38;;
7359;SDS011;3720;48.274;7.796;2023-09-18T00:22:17;7.10;;;2.38;;
7359;SDS011;3720;48.274;7.796;2023-09-18T00:24:48;5.43;;;2.00;;
7359;SDS011;3720;48.274;7.796;2023-09-18T00:27:20;6.68;;;2.50;;
7359;SDS011;3720;48.274;7.796;2023-09-18T00:29:52;4.55;;;2.17;;
7359;SDS011;3720;48.274;7.796;2023-09-18T00:32:24;6.05;;;2.40;;
7359;SDS011;3720;48.274;7.796;2023-09-18T00:34:56;8.38;;;2.20;;
7359;SDS011;3720;48.274;7.796;2023-09-18T00:37:29;8.05;;;2.58;;
7359;SDS011;3720;48.274;7.796;2023-09-18T00:40:01;6.63;;;2.85;;
7359;SDS011;3720;48.274;7.796;2023-09-18T00:42:35;7.30;;;2.80;;
7359;SDS011;3720;48.274;7.796;2023-09-18T00:45:07;7.65;;;2.50;;
7359;SDS011;3720;48.274;7.796;2023-09-18T00:47:39;8.95;;;3.08;;
7359;SDS011;3720;48.274;7.796;2023-09-18T00:50:11;9.95;;;3.20;;
7359;SDS011;3720;48.274;7.796;2023-09-18T00:52:46;6.60;;;2.85;;
7359;SDS011;3720;48.274;7.796;2023-09-18T00:55:18;7.35;;;3.22;;
7359;SDS011;3720;48.274;7.796;2023-09-18T00:57:50;10.15;;;3.17;;
7359;SDS011;3720;48.274;7.796;2023-09-18T01:00:22;6.45;;;2.88;;
7359;SDS011;3720;48.274;7.796;2023-09-18T01:02:54;8.68;;;3.10;;
7359;SDS011;3720;48.274;7.796;2023-09-18T01:05:26;6.78;;;2.63;;
7359;SDS011;3720;48.274;7.796;2023-09-18T01:07:59;8.68;;;2.90;;
7359;SDS011;3720;48.274;7.796;2023-09-18T01:10:32;7.78;;;3.35;;
7359;SDS011;3720;48.274;7.796;2023-09-18T01:13:11;7.28;;;3.15;;
7359;SDS011;3720;48.274;7.796;2023-09-18T01:15:48;5.68;;;2.90;;
7359;SDS011;3720;48.274;7.796;2023-09-18T01:18:25;9.95;;;3.08;;
7359;SDS011;3720;48.274;7.796;2023-09-18T01:20:57;8.35;;;3.20;;
7359;SDS011;3720;48.274;7.796;2023-09-18T01:23:30;4.63;;;2.70;;
7359;SDS011;3720;48.274;7.796;2023-09-18T01:26:02;7.72;;;3.20;;
7359;SDS011;3720;48.274;7.796;2023-09-18T01:28:33;10.77;;;3.30;;
7359;SDS011;3720;48.274;7.796;2023-09-18T01:31:05;7.82;;;2.90;;
7359;SDS011;3720;48.274;7.796;2023-09-18T01:33:38;7.30;;;3.40;;
7359;SDS011;3720;48.274;7.796;2023-09-18T01:36:10;6.15;;;3.70;;
7359;SDS011;3720;48.274;7.796;2023-09-18T01:38:45;7.15;;;3.72;;
7359;SDS011;3720;48.274;7.796;2023-09-18T01:41:18;7.18;;;3.60;;
7359;SDS011;3720;48.274;7.796;2023-09-18T01:43:50;9.85;;;3.83;;
7359;SDS011;3720;48.274;7.796;2023-09-18T01:46:22;8.65;;;3.80;;
7359;SDS011;3720;48.274;7.796;2023-09-18T01:48:54;7.70;;;3.92;;
7359;SDS011;3720;48.274;7.796;2023-09-18T01:51:26;8.13;;;3.42;;
7359;SDS011;3720;48.274;7.796;2023-09-18T01:53:59;9.27;;;3.42;;
7359;SDS011;3720;48.274;7.796;2023-09-18T01:56:31;7.05;;;3.45;;
7359;SDS011;3720;48.274;7.796;2023-09-18T01:59:03;9.60;;;3.83;;
7359;SDS011;3720;48.274;7.796;2023-09-18T02:01:35;8.63;;;3.78;;
7359;SDS011;3720;48.274;7.796;2023-09-18T02:04:08;8.00;;;3.47;;
7359;SDS011;3720;48.274;7.796;2023-09-18T02:06:39;6.57;;;3.60;;
7359;SDS011;3720;48.274;7.796;2023-09-18T02:09:13;11.43;;;4.10;;
7359;SDS011;3720;48.274;7.796;2023-09-18T02:11:45;10.27;;;4.15;;
7359;SDS011;3720;48.274;7.796;2023-09-18T02:14:18;8.00;;;3.92;;
7359;SDS011;3720;48.274;7.796;2023-09-18T02:16:50;8.43;;;4.10;;
7359;SDS011;3720;48.274;7.796;2023-09-18T02:19:22;8.43;;;3.65;;
7359;SDS011;3720;48.274;7.796;2023-09-18T02:21:55;8.95;;;3.80;;
7359;SDS011;3720;48.274;7.796;2023-09-18T02:24:29;6.68;;;3.33;;
7359;SDS011;3720;48.274;7.796;2023-09-18T02:27:03;5.97;;;3.70;;
7359;SDS011;3720;48.274;7.796;2023-09-18T02:29:35;10.50;;;3.58;;
7359;SDS011;3720;48.274;7.796;2023-09-18T02:32:07;10.75;;;3.83;;
7359;SDS011;3720;48.274;7.796;2023-09-18T02:34:40;11.38;;;3.97;;
7359;SDS011;3720;48.274;7.796;2023-09-18T02:37:11;8.35;;;3.88;;
7359;SDS011;3720;48.274;7.796;2023-09-18T02:39:45;10.80;;;3.70;;
7359;SDS011;3720;48.274;7.796;2023-09-18T02:42:16;26.15;;;4.18;;
7359;SDS011;3720;48.274;7.796;2023-09-18T02:44:48;26.55;;;4.40;;
7359;SDS011;3720;48.274;7.796;2023-09-18T02:47:20;16.42;;;4.63;;
7359;SDS011;3720;48.274;7.796;2023-09-18T02:49:52;23.00;;;4.85;;
7359;SDS011;3720;48.274;7.796;2023-09-18T02:52:24;20.50;;;5.03;;
7359;SDS011;3720;48.274;7.796;2023-09-18T02:54:57;22.05;;;4.93;;
7359;SDS011;3720;48.274;7.796;2023-09-18T02:57:29;14.20;;;4.18;;
7359;SDS011;3720;48.274;7.796;2023-09-18T03:00:00;15.52;;;4.22;;
7359;SDS011;3720;48.274;7.796;2023-09-18T03:02:33;11.60;;;3.75;;
7359;SDS011;3720;48.274;7.796;2023-09-18T03:05:05;11.73;;;4.10;;
7359;SDS011;3720;48.274;7.796;2023-09-18T03:07:38;11.88;;;4.82;;
7359;SDS011;3720;48.274;7.796;2023-09-18T03:10:12;16.88;;;4.68;;
7359;SDS011;3720;48.274;7.796;2023-09-18T03:12:47;15.88;;;4.25;;
7359;SDS011;3720;48.274;7.796;2023-09-18T03:15:19;11.38;;;4.05;;
7359;SDS011;3720;48.274;7.796;2023-09-18T03:17:50;9.77;;;3.40;;
7359;SDS011;3720;48.274;7.796;2023-09-18T03:20:22;10.73;;;3.08;;
7359;SDS011;3720;48.274;7.796;2023-09-18T03:22:55;8.05;;;2.83;;
7359;SDS011;3720;48.274;7.796;2023-09-18T03:25:29;8.82;;;2.53;;
7359;SDS011;3720;48.274;7.796;2023-09-18T03:28:01;9.80;;;2.35;;
7359;SDS011;3720;48.274;7.796;2023-09-18T03:30:33;8.73;;;2.72;;
7359;SDS011;3720;48.274;7.796;2023-09-18T03:33:04;10.40;;;2.47;;
7359;SDS011;3720;48.274;7.796;2023-09-18T03:35:44;9.07;;;3.00;;
7359;SDS011;3720;48.274;7.796;2023-09-18T03:38:17;10.48;;;2.72;;
7359;SDS011;3720;48.274;7.796;2023-09-18T03:40:51;9.43;;;2.80;;
7359;SDS011;3720;48.274;7.796;2023-09-18T03:43:23;7.97;;;2.80;;
7359;SDS011;3720;48.274;7.796;2023-09-18T03:45:55;8.93;;;2.75;;
7359;SDS011;3720;48.274;7.796;2023-09-18T03:48:34;7.85;;;2.67;;
7359;SDS011;3720;48.274;7.796;2023-09-18T03:51:07;10.02;;;2.72;;
7359;SDS011;3720;48.274;7.796;2023-09-18T03:53:39;9.80;;;3.10;;
7359;SDS011;3720;48.274;7.796;2023-09-18T03:56:13;14.02;;;3.10;;
7359;SDS011;3720;48.274;7.796;2023-09-18T03:58:45;15.07;;;3.40;;
7359;SDS011;3720;48.274;7.796;2023-09-18T04:01:19;13.95;;;3.20;;
7359;SDS011;3720;48.274;7.796;2023-09-18T04:03:51;11.82;;;4.00;;
7359;SDS011;3720;48.274;7.796;2023-09-18T04:06:23;10.48;;;4.38;;
7359;SDS011;3720;48.274;7.796;2023-09-18T04:08:55;11.45;;;3.53;;
7359;SDS011;3720;48.274;7.796;2023-09-18T04:11:28;13.25;;;3.83;;
7359;SDS011;3720;48.274;7.796;2023-09-18T04:14:02;11.82;;;4.03;;
7359;SDS011;3720;48.274;7.796;2023-09-18T04:16:34;9.35;;;3.35;;
7359;SDS011;3720;48.274;7.796;2023-09-18T04:19:07;13.07;;;4.07;;
7359;SDS011;3720;48.274;7.796;2023-09-18T04:21:39;12.25;;;3.33;;
7359;SDS011;3720;48.274;7.796;2023-09-18T04:24:11;11.32;;;3.25;;
7359;SDS011;3720;48.274;7.796;2023-09-18T04:26:44;11.85;;;3.20;;
7359;SDS011;3720;48.274;7.796;2023-09-18T04:29:16;9.95;;;2.85;;
7359;SDS011;3720;48.274;7.796;2023-09-18T04:31:48;11.15;;;2.75;;
7359;SDS011;3720;48.274;7.796;2023-09-18T04:34:21;10.45;;;3.00;;
7359;SDS011;3720;48.274;7.796;2023-09-18T04:36:52;9.18;;;2.60;;
7359;SDS011;3720;48.274;7.796;2023-09-18T04:39:24;9.18;;;2.60;;
7359;SDS011;3720;48.274;7.796;2023-09-18T04:41:58;9.90;;;2.95;;
7359;SDS011;3720;48.274;7.796;2023-09-18T04:44:29;9.10;;;2.35;;
7359;SDS011;3720;48.274;7.796;2023-09-18T04:47:02;10.48;;;2.58;;
7359;SDS011;3720;48.274;7.796;2023-09-18T04:49:34;10.40;;;2.35;;
7359;SDS011;3720;48.274;7.796;2023-09-18T04:52:06;9.13;;;2.53;;
7359;SDS011;3720;48.274;7.796;2023-09-18T04:54:38;11.48;;;2.85;;
7359;SDS011;3720;48.274;7.796;2023-09-18T04:57:11;7.15;;;2.28;;
7359;SDS011;3720;48.274;7.796;2023-09-18T04:59:43;5.75;;;2.22;;
7359;SDS011;3720;48.274;7.796;2023-09-18T05:02:14;7.45;;;1.77;;
7359;SDS011;3720;48.274;7.796;2023-09-18T05:04:46;8.07;;;1.88;;
7359;SDS011;3720;48.274;7.796;2023-09-18T05:07:18;8.32;;;2.10;;
7359;SDS011;3720;48.274;7.796;2023-09-18T05:09:51;8.27;;;2.00;;
7359;SDS011;3720;48.274;7.796;2023-09-18T05:12:24;6.68;;;2.00;;
7359;SDS011;3720;48.274;7.796;2023-09-18T05:14:56;6.10;;;1.88;;
7359;SDS011;3720;48.274;7.796;2023-09-18T05:17:39;5.60;;;1.65;;
7359;SDS011;3720;48.274;7.796;2023-09-18T05:20:13;4.93;;;1.40;;
7359;SDS011;3720;48.274;7.796;2023-09-18T05:22:47;4.63;;;1.35;;
7359;SDS011;3720;48.274;7.796;2023-09-18T05:25:19;5.75;;;1.30;;
7359;SDS011;3720;48.274;7.796;2023-09-18T05:27:54;5.47;;;1.20;;
7359;SDS011;3720;48.274;7.796;2023-09-18T05:30:27;4.15;;;1.42;;
7359;SDS011;3720;48.274;7.796;2023-09-18T05:33:01;3.28;;;1.30;;
7359;SDS011;3720;48.274;7.796;2023-09-18T05:35:36;3.08;;;1.20;;
7359;SDS011;3720;48.274;7.796;2023-09-18T05:38:10;3.50;;;1.05;;
7359;SDS011;3720;48.274;7.796;2023-09-18T05:40:44;3.63;;;1.20;;
7359;SDS011;3720;48.274;7.796;2023-09-18T05:43:18;5.40;;;1.20;;
7359;SDS011;3720;48.274;7.796;2023-09-18T05:45:49;4.30;;;1.10;;
7359;SDS011;3720;48.274;7.796;2023-09-18T05:48:21;4.25;;;1.17;;
7359;SDS011;3720;48.274;7.796;2023-09-18T05:50:53;4.20;;;1.10;;
7359;SDS011;3720;48.274;7.796;2023-09-18T05:53:25;4.43;;;0.93;;
7359;SDS011;3720;48.274;7.796;2023-09-18T05:55:57;5.65;;;1.02;;
7359;SDS011;3720;48.274;7.796;2023-09-18T05:58:35;4.00;;;0.98;;
7359;SDS011;3720;48.274;7.796;2023-09-18T06:01:07;4.57;;;1.30;;
7359;SDS011;3720;48.274;7.796;2023-09-18T06:03:39;2.83;;;1.08;;
7359;SDS011;3720;48.274;7.796;2023-09-18T06:06:11;6.90;;;1.35;;
7359;SDS011;3720;48.274;7.796;2023-09-18T06:08:42;2.03;;;1.15;;
7359;SDS011;3720;48.274;7.796;2023-09-18T06:11:14;5.40;;;1.20;;
7359;SDS011;3720;48.274;7.796;2023-09-18T06:13:49;4.13;;;1.00;;
7359;SDS011;3720;48.274;7.796;2023-09-18T06:16:20;4.97;;;1.40;;
7359;SDS011;3720;48.274;7.796;2023-09-18T06:18:52;4.63;;;1.23;;
7359;SDS011;3720;48.274;7.796;2023-09-18T06:21:26;3.47;;;1.20;;
7359;SDS011;3720;48.274;7.796;2023-09-18T06:23:58;3.22;;;1.27;;
7359;SDS011;3720;48.274;7.796;2023-09-18T06:26:30;4.25;;;1.45;;
7359;SDS011;3720;48.274;7.796;2023-09-18T06:29:03;6.28;;;1.30;;
7359;SDS011;3720;48.274;7.796;2023-09-18T06:31:35;4.60;;;1.20;;
7359;SDS011;3720;48.274;7.796;2023-09-18T06:34:07;5.35;;;1.35;;
7359;SDS011;3720;48.274;7.796;2023-09-18T06:36:39;8.18;;;1.48;;
7359;SDS011;3720;48.274;7.796;2023-09-18T06:39:11;7.53;;;1.38;;
7359;SDS011;3720;48.274;7.796;2023-09-18T06:41:42;4.20;;;1.52;;
7359;SDS011;3720;48.274;7.796;2023-09-18T06:44:16;4.15;;;1.67;;
7359;SDS011;3720;48.274;7.796;2023-09-18T06:46:48;8.95;;;1.70;;
7359;SDS011;3720;48.274;7.796;2023-09-18T06:49:19;6.50;;;1.45;;
7359;SDS011;3720;48.274;7.796;2023-09-18T06:51:51;8.32;;;1.92;;
7359;SDS011;3720;48.274;7.796;2023-09-18T06:54:23;2.90;;;1.63;;
7359;SDS011;3720;48.274;7.796;2023-09-18T06:56:55;4.43;;;1.50;;
7359;SDS011;3720;48.274;7.796;2023-09-18T06:59:28;3.78;;;1.27;;
7359;SDS011;3720;48.274;7.796;2023-09-18T07:02:01;6.60;;;1.73;;
7359;SDS011;3720;48.274;7.796;2023-09-18T07:04:33;6.35;;;1.60;;
7359;SDS011;3720;48.274;7.796;2023-09-18T07:07:05;5.63;;;1.52;;
7359;SDS011;3720;48.274;7.796;2023-09-18T07:09:36;5.63;;;1.60;;
7359;SDS011;3720;48.274;7.796;2023-09-18T07:12:08;7.63;;;1.80;;
7359;SDS011;3720;48.274;7.796;2023-09-18T07:14:42;4.97;;;1.83;;
7359;SDS011;3720;48.274;7.796;2023-09-18T07:17:13;5.63;;;1.60;;
7359;SDS011;3720;48.274;7.796;2023-09-18T07:19:46;6.43;;;1.75;;
7359;SDS011;3720;48.274;7.796;2023-09-18T07:22:18;5.75;;;1.70;;
7359;SDS011;3720;48.274;7.796;2023-09-18T07:24:49;3.53;;;1.40;;
7359;SDS011;3720;48.274;7.796;2023-09-18T07:27:21;4.72;;;1.52;;
7359;SDS011;3720;48.274;7.796;2023-09-18T07:29:55;7.90;;;1.60;;
7359;SDS011;3720;48.274;7.796;2023-09-18T07:32:28;4.05;;;1.35;;
7359;SDS011;3720;48.274;7.796;2023-09-18T07:34:59;4.70;;;1.50;;
7359;SDS011;3720;48.274;7.796;2023-09-18T07:37:31;4.72;;;1.67;;
7359;SDS011;3720;48.274;7.796;2023-09-18T07:40:03;6.28;;;1.70;;
7359;SDS011;3720;48.274;7.796;2023-09-18T07:42:36;3.55;;;1.70;;
7359;SDS011;3720;48.274;7.796;2023-09-18T07:45:10;4.63;;;1.58;;
7359;SDS011;3720;48.274;7.796;2023-09-18T07:47:42;6.13;;;1.70;;
7359;SDS011;3720;48.274;7.796;2023-09-18T07:50:13;6.07;;;1.75;;
7359;SDS011;3720;48.274;7.796;2023-09-18T07:52:45;4.97;;;1.55;;
7359;SDS011;3720;48.274;7.796;2023-09-18T07:55:17;5.68;;;1.48;;
7359;SDS011;3720;48.274;7.796;2023-09-18T07:57:49;4.43;;;1.40;;
7359;SDS011;3720;48.274;7.796;2023-09-18T08:00:23;4.75;;;1.30;;
7359;SDS011;3720;48.274;7.796;2023-09-18T08:02:57;4.22;;;1.27;;
7359;SDS011;3720;48.274;7.796;2023-09-18T08:05:30;5.00;;;1.35;;
7359;SDS011;3720;48.274;7.796;2023-09-18T08:08:02;4.28;;;1.45;;
7359;SDS011;3720;48.274;7.796;2023-09-18T08:10:36;5.70;;;1.30;;
7359;SDS011;3720;48.274;7.796;2023-09-18T08:13:08;5.60;;;1.30;;
7359;SDS011;3720;48.274;7.796;2023-09-18T08:15:41;6.75;;;1.20;;
7359;SDS011;3720;48.274;7.796;2023-09-18T08:18:13;4.65;;;1.25;;
7359;SDS011;3720;48.274;7.796;2023-09-18T08:20:45;2.60;;;1.23;;
7359;SDS011;3720;48.274;7.796;2023-09-18T08:23:17;3.47;;;1.00;;
7359;SDS011;3720;48.274;7.796;2023-09-18T08:25:49;3.08;;;1.10;;
7359;SDS011;3720;48.274;7.796;2023-09-18T08:28:25;3.70;;;1.20;;
7359;SDS011;3720;48.274;7.796;2023-09-18T08:30:58;2.72;;;1.00;;
7359;SDS011;3720;48.274;7.796;2023-09-18T08:33:31;2.33;;;1.00;;
7359;SDS011;3720;48.274;7.796;2023-09-18T08:36:04;4.75;;;1.00;;
7359;SDS011;3720;48.274;7.796;2023-09-18T08:38:36;2.33;;;0.82;;
7359;SDS011;3720;48.274;7.796;2023-09-18T08:41:08;3.05;;;0.90;;
7359;SDS011;3720;48.274;7.796;2023-09-18T08:43:40;2.95;;;1.20;;
7359;SDS011;3720;48.274;7.796;2023-09-18T08:46:16;3.15;;;1.08;;
7359;SDS011;3720;48.274;7.796;2023-09-18T08:48:48;3.80;;;0.90;;
7359;SDS011;3720;48.274;7.796;2023-09-18T08:51:22;3.22;;;0.80;;
7359;SDS011;3720;48.274;7.796;2023-09-18T08:53:54;2.35;;;1.00;;
7359;SDS011;3720;48.274;7.796;2023-09-18T08:56:27;4.50;;;1.10;;
7359;SDS011;3720;48.274;7.796;2023-09-18T08:58:59;3.90;;;1.10;;
7359;SDS011;3720;48.274;7.796;2023-09-18T09:01:32;3.78;;;1.10;;
7359;SDS011;3720;48.274;7.796;2023-09-18T09:04:05;4.43;;;1.10;;
7359;SDS011;3720;48.274;7.796;2023-09-18T09:06:37;4.93;;;0.98;;
7359;SDS011;3720;48.274;7.796;2023-09-18T09:09:08;3.92;;;0.93;;
7359;SDS011;3720;48.274;7.796;2023-09-18T09:11:47;1.90;;;0.80;;
7359;SDS011;3720;48.274;7.796;2023-09-18T09:14:20;2.75;;;0.80;;
7359;SDS011;3720;48.274;7.796;2023-09-18T09:16:59;5.43;;;1.10;;
7359;SDS011;3720;48.274;7.796;2023-09-18T09:19:33;3.13;;;0.80;;
7359;SDS011;3720;48.274;7.796;2023-09-18T09:22:08;5.20;;;1.00;;
7359;SDS011;3720;48.274;7.796;2023-09-18T09:24:41;3.63;;;0.80;;
7359;SDS011;3720;48.274;7.796;2023-09-18T09:27:14;3.25;;;0.90;;
7359;SDS011;3720;48.274;7.796;2023-09-18T09:29:57;4.90;;;1.02;;
7359;SDS011;3720;48.274;7.796;2023-09-18T09:32:31;2.88;;;1.00;;
7359;SDS011;3720;48.274;7.796;2023-09-18T09:35:04;3.45;;;0.90;;
7359;SDS011;3720;48.274;7.796;2023-09-18T09:37:37;4.90;;;0.80;;
7359;SDS011;3720;48.274;7.796;2023-09-18T09:40:11;3.17;;;1.02;;
7359;SDS011;3720;48.274;7.796;2023-09-18T09:42:44;3.92;;;1.02;;
7359;SDS011;3720;48.274;7.796;2023-09-18T09:45:17;4.25;;;0.98;;
7359;SDS011;3720;48.274;7.796;2023-09-18T09:47:53;1.63;;;0.93;;
7359;SDS011;3720;48.274;7.796;2023-09-18T09:50:26;2.38;;;0.88;;
7359;SDS011;3720;48.274;7.796;2023-09-18T09:52:59;5.45;;;0.90;;
7359;SDS011;3720;48.274;7.796;2023-09-18T09:55:32;2.40;;;1.20;;
7359;SDS011;3720;48.274;7.796;2023-09-18T09:58:05;4.55;;;1.20;;
7359;SDS011;3720;48.274;7.796;2023-09-18T10:00:38;3.13;;;1.20;;
7359;SDS011;3720;48.274;7.796;2023-09-18T10:03:15;4.95;;;1.17;;
7359;SDS011;3720;48.274;7.796;2023-09-18T10:05:50;2.28;;;0.95;;
7359;SDS011;3720;48.274;7.796;2023-09-18T10:08:24;3.05;;;1.00;;
7359;SDS011;3720;48.274;7.796;2023-09-18T10:11:00;2.67;;;0.90;;
7359;SDS011;3720;48.274;7.796;2023-09-18T10:13:39;4.38;;;1.00;;
7359;SDS011;3720;48.274;7.796;2023-09-18T10:16:17;4.55;;;1.10;;
7359;SDS011;3720;48.274;7.796;2023-09-18T10:18:54;4.97;;;1.13;;
7359;SDS011;3720;48.274;7.796;2023-09-18T10:21:33;4.07;;;1.10;;
7359;SDS011;3720;48.274;7.796;2023-09-18T10:24:14;3.63;;;1.10;;
7359;SDS011;3720;48.274;7.796;2023-09-18T10:26:54;6.03;;;1.23;;
7359;SDS011;3720;48.274;7.796;2023-09-18T10:29:29;5.80;;;1.30;;
7359;SDS011;3720;48.274;7.796;2023-09-18T10:32:02;2.95;;;1.30;;
7359;SDS011;3720;48.274;7.796;2023-09-18T10:34:36;5.65;;;1.38;;
7359;SDS011;3720;48.274;7.796;2023-09-18T10:37:09;4.28;;;1.20;;
7359;SDS011;3720;48.274;7.796;2023-09-18T10:39:43;5.15;;;1.20;;
7359;SDS011;3720;48.274;7.796;2023-09-18T10:42:16;3.13;;;1.27;;
7359;SDS011;3720;48.274;7.796;2023-09-18T10:44:49;3.13;;;1.30;;
7359;SDS011;3720;48.274;7.796;2023-09-18T10:47:22;3.28;;;1.10;;
7359;SDS011;3720;48.274;7.796;2023-09-18T10:49:56;3.97;;;1.20;;
7359;SDS011;3720;48.274;7.796;2023-09-18T10:52:28;2.92;;;0.93;;
7359;SDS011;3720;48.274;7.796;2023-09-18T10:55:00;3.17;;;1.10;;
7359;SDS011;3720;48.274;7.796;2023-09-18T10:57:34;3.53;;;1.17;;
7359;SDS011;3720;48.274;7.796;2023-09-18T11:00:07;2.53;;;1.08;;
7359;SDS011;3720;48.274;7.796;2023-09-18T11:02:45;2.42;;;1.02;;
7359;SDS011;3720;48.274;7.796;2023-09-18T11:05:27;4.03;;;1.33;;
7359;SDS011;3720;48.274;7.796;2023-09-18T11:11:05;3.45;;;1.13;;
7359;SDS011;3720;48.274;7.796;2023-09-18T11:13:41;6.95;;;1.17;;
7359;SDS011;3720;48.274;7.796;2023-09-18T11:16:16;3.72;;;1.00;;
7359;SDS011;3720;48.274;7.796;2023-09-18T11:18:52;4.18;;;1.35;;
7359;SDS011;3720;48.274;7.796;2023-09-18T11:21:27;4.15;;;0.93;;
7359;SDS011;3720;48.274;7.796;2023-09-18T11:24:00;1.67;;;0.90;;
7359;SDS011;3720;48.274;7.796;2023-09-18T11:26:34;3.92;;;0.95;;
7359;SDS011;3720;48.274;7.796;2023-09-18T11:29:07;3.75;;;1.10;;
7359;SDS011;3720;48.274;7.796;2023-09-18T11:31:41;4.50;;;1.17;;
7359;SDS011;3720;48.274;7.796;2023-09-18T11:34:15;3.95;;;1.00;;
7359;SDS011;3720;48.274;7.796;2023-09-18T11:36:52;2.70;;;0.90;;
7359;SDS011;3720;48.274;7.796;2023-09-18T11:39:33;2.47;;;1.08;;
7359;SDS011;3720;48.274;7.796;2023-09-18T11:42:06;1.52;;;0.90;;
7359;SDS011;3720;48.274;7.796;2023-09-18T11:44:42;5.00;;;1.20;;
7359;SDS011;3720;48.274;7.796;2023-09-18T11:47:16;4.45;;;0.90;;
7359;SDS011;3720;48.274;7.796;2023-09-18T11:49:50;2.05;;;1.10;;
7359;SDS011;3720;48.274;7.796;2023-09-18T11:52:26;3.08;;;1.00;;
7359;SDS011;3720;48.274;7.796;2023-09-18T11:54:59;4.32;;;1.10;;
7359;SDS011;3720;48.274;7.796;2023-09-18T11:57:35;2.55;;;1.00;;
7359;SDS011;3720;48.274;7.796;2023-09-18T12:00:17;1.30;;;0.90;;
7359;SDS011;3720;48.274;7.796;2023-09-18T12:02:53;2.53;;;0.88;;
7359;SDS011;3720;48.274;7.796;2023-09-18T12:05:25;1.70;;;0.80;;
7359;SDS011;3720;48.274;7.796;2023-09-18T12:07:58;4.80;;;1.10;;
7359;SDS011;3720;48.274;7.796;2023-09-18T12:10:30;2.25;;;1.08;;
7359;SDS011;3720;48.274;7.796;2023-09-18T12:13:05;3.72;;;1.17;;
7359;SDS011;3720;48.274;7.796;2023-09-18T12:15:38;2.80;;;1.30;;
7359;SDS011;3720;48.274;7.796;2023-09-18T12:18:11;2.42;;;1.10;;
7359;SDS011;3720;48.274;7.796;2023-09-18T12:20:46;1.88;;;0.98;;
7359;SDS011;3720;48.274;7.796;2023-09-18T12:23:19;3.50;;;0.90;;
7359;SDS011;3720;48.274;7.796;2023-09-18T12:25:56;1.90;;;1.00;;
7359;SDS011;3720;48.274;7.796;2023-09-18T12:28:30;1.98;;;0.70;;
7359;SDS011;3720;48.274;7.796;2023-09-18T12:31:02;1.67;;;0.93;;
7359;SDS011;3720;48.274;7.796;2023-09-18T12:33:36;1.77;;;0.70;;
7359;SDS011;3720;48.274;7.796;2023-09-18T12:36:09;2.45;;;0.60;;
7359;SDS011;3720;48.274;7.796;2023-09-18T12:38:46;2.10;;;0.63;;
7359;SDS011;3720;48.274;7.796;2023-09-18T12:41:26;4.22;;;0.90;;
7359;SDS011;3720;48.274;7.796;2023-09-18T12:43:58;1.88;;;0.70;;
7359;SDS011;3720;48.274;7.796;2023-09-18T12:46:30;2.55;;;0.80;;
7359;SDS011;3720;48.274;7.796;2023-09-18T12:52:02;2.25;;;0.90;;
7359;SDS011;3720;48.274;7.796;2023-09-18T12:57:26;3.08;;;0.70;;
7359;SDS011;3720;48.274;7.796;2023-09-18T12:59:58;5.50;;;0.80;;
7359;SDS011;3720;48.274;7.796;2023-09-18T13:02:33;2.00;;;0.73;;
7359;SDS011;3720;48.274;7.796;2023-09-18T13:05:05;1.60;;;0.60;;
7359;SDS011;3720;48.274;7.796;2023-09-18T13:07:43;1.02;;;0.70;;
7359;SDS011;3720;48.274;7.796;2023-09-18T13:10:17;1.88;;;0.60;;
7359;SDS011;3720;48.274;7.796;2023-09-18T13:12:52;2.17;;;0.88;;
7359;SDS011;3720;48.274;7.796;2023-09-18T13:15:25;3.33;;;0.80;;
7359;SDS011;3720;48.274;7.796;2023-09-18T13:17:59;3.75;;;0.70;;
7359;SDS011;3720;48.274;7.796;2023-09-18T13:20:34;1.08;;;0.63;;
7359;SDS011;3720;48.274;7.796;2023-09-18T13:23:06;2.90;;;0.80;;
7359;SDS011;3720;48.274;7.796;2023-09-18T13:25:40;3.22;;;0.77;;
7359;SDS011;3720;48.274;7.796;2023-09-18T13:28:14;2.47;;;0.60;;
7359;SDS011;3720;48.274;7.796;2023-09-18T13:30:48;3.42;;;0.70;;
7359;SDS011;3720;48.274;7.796;2023-09-18T13:33:21;2.92;;;0.68;;
7359;SDS011;3720;48.274;7.796;2023-09-18T13:35:53;2.80;;;0.77;;
7359;SDS011;3720;48.274;7.796;2023-09-18T13:38:26;4.25;;;0.90;;
7359;SDS011;3720;48.274;7.796;2023-09-18T13:40:59;2.83;;;0.80;;
7359;SDS011;3720;48.274;7.796;2023-09-18T13:43:30;3.42;;;1.00;;
7359;SDS011;3720;48.274;7.796;2023-09-18T13:46:04;2.20;;;0.90;;
7359;SDS011;3720;48.274;7.796;2023-09-18T13:48:36;2.65;;;0.80;;
7359;SDS011;3720;48.274;7.796;2023-09-18T13:51:08;1.92;;;0.85;;
7359;SDS011;3720;48.274;7.796;2023-09-18T13:53:40;1.92;;;0.73;;
7359;SDS011;3720;48.274;7.796;2023-09-18T13:56:14;2.28;;;0.90;;
7359;SDS011;3720;48.274;7.796;2023-09-18T13:58:46;1.45;;;0.80;;
7359;SDS011;3720;48.274;7.796;2023-09-18T14:01:18;2.00;;;0.88;;
7359;SDS011;3720;48.274;7.796;2023-09-18T14:03:50;1.73;;;0.90;;
7359;SDS011;3720;48.274;7.796;2023-09-18T14:06:22;1.67;;;0.80;;
7359;SDS011;3720;48.274;7.796;2023-09-18T14:08:54;1.85;;;0.85;;
7359;SDS011;3720;48.274;7.796;2023-09-18T14:11:27;1.98;;;0.80;;
7359;SDS011;3720;48.274;7.796;2023-09-18T14:13:59;3.15;;;0.90;;
7359;SDS011;3720;48.274;7.796;2023-09-18T14:16:31;2.22;;;0.88;;
7359;SDS011;3720;48.274;7.796;2023-09-18T14:19:03;3.20;;;1.00;;
7359;SDS011;3720;48.274;7.796;2023-09-18T14:21:35;2.17;;;0.90;;
7359;SDS011;3720;48.274;7.796;2023-09-18T14:24:07;2.25;;;0.80;;
7359;SDS011;3720;48.274;7.796;2023-09-18T14:26:41;4.10;;;1.00;;
7359;SDS011;3720;48.274;7.796;2023-09-18T14:29:12;3.58;;;1.00;;
7359;SDS011;3720;48.274;7.796;2023-09-18T14:31:44;1.73;;;0.90;;
7359;SDS011;3720;48.274;7.796;2023-09-18T14:34:16;2.03;;;1.02;;
7359;SDS011;3720;48.274;7.796;2023-09-18T14:36:48;3.67;;;1.10;;
7359;SDS011;3720;48.274;7.796;2023-09-18T14:39:20;3.10;;;1.17;;
7359;SDS011;3720;48.274;7.796;2023-09-18T14:41:53;2.60;;;1.02;;
7359;SDS011;3720;48.274;7.796;2023-09-18T14:44:25;2.28;;;0.90;;
7359;SDS011;3720;48.274;7.796;2023-09-18T14:46:58;2.90;;;0.90;;
7359;SDS011;3720;48.274;7.796;2023-09-18T14:49:30;2.05;;;1.00;;
7359;SDS011;3720;48.274;7.796;2023-09-18T14:52:02;4.13;;;0.85;;
7359;SDS011;3720;48.274;7.796;2023-09-18T14:54:34;2.92;;;1.13;;
7359;SDS011;3720;48.274;7.796;2023-09-18T14:57:08;2.70;;;1.08;;
7359;SDS011;3720;48.274;7.796;2023-09-18T14:59:40;2.42;;;1.10;;
7359;SDS011;3720;48.274;7.796;2023-09-18T15:02:17;2.15;;;0.80;;
7359;SDS011;3720;48.274;7.796;2023-09-18T15:04:49;2.05;;;1.00;;
7359;SDS011;3720;48.274;7.796;2023-09-18T15:07:20;3.10;;;1.00;;
7359;SDS011;3720;48.274;7.796;2023-09-18T15:09:52;2.45;;;1.00;;
7359;SDS011;3720;48.274;7.796;2023-09-18T15:12:26;4.93;;;1.25;;
7359;SDS011;3720;48.274;7.796;2023-09-18T15:14:59;3.58;;;1.10;;
7359;SDS011;3720;48.274;7.796;2023-09-18T15:17:31;4.22;;;1.00;;
7359;SDS011;3720;48.274;7.796;2023-09-18T15:20:04;3.40;;;0.98;;
7359;SDS011;3720;48.274;7.796;2023-09-18T15:22:36;1.67;;;0.90;;
7359;SDS011;3720;48.274;7.796;2023-09-18T15:25:08;1.80;;;1.10;;
7359;SDS011;3720;48.274;7.796;2023-09-18T15:27:42;4.47;;;1.10;;
7359;SDS011;3720;48.274;7.796;2023-09-18T15:30:14;3.33;;;1.17;;
7359;SDS011;3720;48.274;7.796;2023-09-18T15:32:46;3.08;;;1.00;;
7359;SDS011;3720;48.274;7.796;2023-09-18T15:35:19;1.80;;;1.00;;
7359;SDS011;3720;48.274;7.796;2023-09-18T15:37:52;3.30;;;1.10;;
7359;SDS011;3720;48.274;7.796;2023-09-18T15:40:24;3.20;;;1.17;;
7359;SDS011;3720;48.274;7.796;2023-09-18T15:42:58;3.90;;;1.10;;
7359;SDS011;3720;48.274;7.796;2023-09-18T15:45:30;4.03;;;1.40;;
7359;SDS011;3720;48.274;7.796;2023-09-18T15:48:05;4.63;;;1.10;;
7359;SDS011;3720;48.274;7.796;2023-09-18T15:50:37;5.13;;;1.33;;
7359;SDS011;3720;48.274;7.796;2023-09-18T15:53:09;5.63;;;1.13;;
7359;SDS011;3720;48.274;7.796;2023-09-18T15:55:40;3.92;;;1.02;;
7359;SDS011;3720;48.274;7.796;2023-09-18T15:58:14;3.90;;;1.20;;
7359;SDS011;3720;48.274;7.796;2023-09-18T16:00:47;2.30;;;1.10;;